Time;durP1;ratioP1;P1;durP2;ratioP2;P2;SDS_P1;SDS_P2;PMS_P1;PMS_P2;Temp;Humidity;BMP_temperature;BMP_pressure;BME280_temperature;BME280_humidity;BME280_pressure;Samples;Min_cycle;Max_cycle;Signal;HPM_P1;HPM_P2
2022/08/09 00:01:49;;;;;;;0.50;0.50;;;;;18.30;96608.00;;;;5095763;28;20225;-49
2022/08/09 00:04:18;;;;;;;3.33;1.03;;;;;18.20;96604.00;;;;5095858;28;20244;-48
2022/08/09 00:06:45;;;;;;;0.50;0.50;;;;;18.20;96603.00;;;;5113644;28;20262;-49
2022/08/09 00:09:13;;;;;;;0.43;0.43;;;;;18.20;96608.00;;;;5095111;28;20213;-49
2022/08/09 00:11:40;;;;;;;0.40;0.40;;;;;18.10;96610.00;;;;5095836;28;20197;-49
2022/08/09 00:14:07;;;;;;;0.50;0.50;;;;;18.10;96606.00;;;;5095568;28;20595;-49
2022/08/09 00:16:34;;;;;;;0.57;0.57;;;;;18.10;96609.00;;;;5095597;28;20262;-48
2022/08/09 00:19:02;;;;;;;0.40;0.40;;;;;18.10;96605.00;;;;5113473;28;20222;-49
2022/08/09 00:21:29;;;;;;;0.50;0.50;;;;;18.10;96603.00;;;;5113513;28;20190;-49
2022/08/09 00:23:57;;;;;;;0.57;0.57;;;;;18.00;96604.00;;;;5113360;28;20221;-48
2022/08/09 00:26:24;;;;;;;0.50;0.50;;;;;17.90;96604.00;;;;5113533;28;20194;-49
2022/08/09 00:28:52;;;;;;;0.50;0.50;;;;;17.90;96599.00;;;;5113482;28;20205;-48
2022/08/09 00:31:20;;;;;;;0.50;0.50;;;;;17.80;96603.00;;;;5095339;28;20255;-49
2022/08/09 00:33:47;;;;;;;0.40;0.40;;;;;17.70;96602.00;;;;5113280;28;20194;-54
2022/08/09 00:36:14;;;;;;;0.57;0.57;;;;;17.70;96596.00;;;;5113221;28;20217;-47
2022/08/09 00:38:41;;;;;;;0.50;0.50;;;;;17.60;96597.00;;;;5113254;28;20190;-51
2022/08/09 00:41:08;;;;;;;0.60;0.60;;;;;17.50;96597.00;;;;5113305;28;20263;-50
2022/08/09 00:43:36;;;;;;;0.60;0.60;;;;;17.50;96596.00;;;;5113253;28;20250;-48
2022/08/09 00:46:07;;;;;;;0.50;0.50;;;;;17.60;96597.00;;;;5113250;28;20187;-50
2022/08/09 00:48:34;;;;;;;0.60;0.60;;;;;17.60;96592.00;;;;5095225;28;20283;-51
2022/08/09 00:51:02;;;;;;;0.63;0.63;;;;;17.60;96592.00;;;;5113211;28;20200;-48
2022/08/09 00:53:29;;;;;;;0.40;0.40;;;;;17.50;96588.00;;;;5112983;28;20218;-49
2022/08/09 00:55:57;;;;;;;0.57;0.57;;;;;17.40;96603.00;;;;5113007;28;20206;-48
2022/08/09 00:58:24;;;;;;;0.60;0.60;;;;;17.40;96598.00;;;;5112909;28;20254;-48
2022/08/09 01:00:54;;;;;;;0.50;0.50;;;;;17.40;96600.00;;;;5113135;28;20229;-49
2022/08/09 01:03:28;;;;;;;0.77;0.77;;;;;17.30;96609.00;;;;5112754;28;20533;-49
2022/08/09 01:06:03;;;;;;;0.63;0.63;;;;;17.20;96617.00;;;;5113060;28;20205;-48
2022/08/09 01:08:42;;;;;;;0.43;0.43;;;;;17.10;96621.00;;;;5112954;28;20186;-48
2022/08/09 01:11:22;;;;;;;0.57;0.57;;;;;17.10;96613.00;;;;5112810;28;20225;-49
2022/08/09 01:13:58;;;;;;;0.43;0.43;;;;;17.00;96616.00;;;;5112803;28;20209;-52
2022/08/09 01:16:30;;;;;;;0.57;0.57;;;;;16.90;96611.00;;;;5094828;28;20231;-49
2022/08/09 01:19:01;;;;;;;0.60;0.60;;;;;16.80;96602.00;;;;5112822;28;20637;-48
2022/08/09 01:21:43;;;;;;;0.60;0.60;;;;;16.60;96613.00;;;;5115066;28;20214;-49
2022/08/09 01:24:19;;;;;;;0.50;0.50;;;;;16.50;96610.00;;;;5116128;28;20236;-48
2022/08/09 01:26:55;;;;;;;0.50;0.50;;;;;16.60;96600.00;;;;5116133;28;20213;-48
2022/08/09 01:29:30;;;;;;;0.50;0.50;;;;;16.60;96607.00;;;;5116143;28;20613;-49
2022/08/09 01:32:01;;;;;;;0.53;0.53;;;;;16.50;96613.00;;;;5116052;28;20185;-48
2022/08/09 01:34:30;;;;;;;0.40;0.40;;;;;16.60;96613.00;;;;5116071;28;20194;-49
2022/08/09 01:36:59;;;;;;;0.50;0.50;;;;;16.70;96608.00;;;;5115903;28;20509;-48
2022/08/09 01:39:29;;;;;;;0.80;0.80;;;;;16.70;96609.00;;;;5115843;28;20186;-49
2022/08/09 01:42:00;;;;;;;0.50;0.50;;;;;16.60;96607.00;;;;5115873;28;20198;-49
2022/08/09 01:44:28;;;;;;;0.83;0.83;;;;;16.50;96606.00;;;;5115643;28;20661;-48
2022/08/09 01:46:56;;;;;;;0.53;0.53;;;;;16.40;96624.00;;;;5115693;28;20206;-48
2022/08/09 01:49:24;;;;;;;0.70;0.70;;;;;16.40;96618.00;;;;5115556;28;20221;-48
2022/08/09 01:51:55;;;;;;;3.67;0.67;;;;;16.40;96616.00;;;;5115845;28;20539;-51
2022/08/09 01:54:27;;;;;;;0.60;0.60;;;;;16.30;96617.00;;;;5115611;28;20230;-49
2022/08/09 01:56:57;;;;;;;0.50;0.50;;;;;16.40;96620.00;;;;5097724;28;20270;-48
2022/08/09 01:59:26;;;;;;;0.60;0.60;;;;;16.40;96622.00;;;;5115569;28;20216;-49
2022/08/09 02:01:55;;;;;;;0.50;0.50;;;;;16.40;96625.00;;;;5115526;28;20190;-48
2022/08/09 02:04:25;;;;;;;0.50;0.50;;;;;16.50;96621.00;;;;5115508;28;20228;-49
2022/08/09 02:07:14;;;;;;;0.50;0.50;;;;;16.50;96627.00;;;;5097412;28;20239;-48
2022/08/09 02:09:48;;;;;;;0.90;0.90;;;;;16.40;96630.00;;;;5115474;28;20197;-48
2022/08/09 02:12:17;;;;;;;0.60;0.60;;;;;16.30;96620.00;;;;5097383;28;20228;-49
2022/08/09 02:14:49;;;;;;;0.60;0.60;;;;;16.40;96620.00;;;;5115374;28;20497;-49
2022/08/09 02:17:23;;;;;;;0.83;0.83;;;;;16.30;96633.00;;;;5115394;28;20308;-55
2022/08/09 02:19:51;;;;;;;0.93;0.87;;;;;16.30;96624.00;;;;5115281;28;20301;-49
2022/08/09 02:22:24;;;;;;;0.77;0.77;;;;;16.20;96634.00;;;;5115305;28;20237;-49
2022/08/09 02:24:55;;;;;;;0.50;0.50;;;;;16.00;96633.00;;;;5115421;28;20374;-49
2022/08/09 02:27:25;;;;;;;0.60;0.60;;;;;15.90;96628.00;;;;5097150;28;20202;-48
2022/08/09 02:29:57;;;;;;;0.60;0.60;;;;;16.00;96629.00;;;;5115178;28;20198;-49
2022/08/09 02:32:27;;;;;;;0.60;0.60;;;;;16.00;96633.00;;;;5114715;28;20190;-48
2022/08/09 02:34:59;;;;;;;0.50;0.50;;;;;16.10;96634.00;;;;5115202;28;20259;-48
2022/08/09 02:37:29;;;;;;;1.70;1.20;;;;;16.00;96633.00;;;;5115074;28;20198;-53
2022/08/09 02:40:01;;;;;;;0.60;0.60;;;;;15.90;96631.00;;;;5115064;28;20261;-49
2022/08/09 02:42:32;;;;;;;0.57;0.57;;;;;15.80;96634.00;;;;5115066;28;20210;-49
2022/08/09 02:45:03;;;;;;;0.70;0.70;;;;;15.70;96641.00;;;;5114836;28;20229;-50
2022/08/09 02:47:32;;;;;;;0.60;0.60;;;;;15.70;96640.00;;;;5114933;28;20201;-49
2022/08/09 02:50:03;;;;;;;0.50;0.50;;;;;15.70;96639.00;;;;5114950;28;20925;-48
2022/08/09 02:52:38;;;;;;;0.50;0.50;;;;;15.80;96638.00;;;;5114996;28;20649;-49
2022/08/09 02:55:08;;;;;;;0.60;0.60;;;;;15.70;96640.00;;;;5114833;28;20194;-48
2022/08/09 02:57:40;;;;;;;0.70;0.70;;;;;15.70;96634.00;;;;5114758;28;20218;-49
2022/08/09 03:00:09;;;;;;;0.60;0.60;;;;;15.40;96632.00;;;;5114705;28;20522;-49
2022/08/09 03:02:37;;;;;;;0.50;0.50;;;;;15.40;96631.00;;;;5114461;28;20252;-49
2022/08/09 03:05:07;;;;;;;0.70;0.70;;;;;15.20;96636.00;;;;5096465;28;20541;-52
2022/08/09 03:07:35;;;;;;;0.57;0.57;;;;;15.10;96632.00;;;;5114454;28;20214;-49
2022/08/09 03:10:03;;;;;;;0.80;0.80;;;;;15.20;96629.00;;;;5114553;28;20206;-51
2022/08/09 03:12:32;;;;;;;0.50;0.50;;;;;15.30;96627.00;;;;5096397;28;20222;-49
2022/08/09 03:14:59;;;;;;;0.90;0.90;;;;;15.30;96625.00;;;;5114426;28;20194;-49
2022/08/09 03:17:27;;;;;;;1.23;1.23;;;;;15.20;96622.00;;;;5114444;28;20236;-48
2022/08/09 03:19:57;;;;;;;0.53;0.53;;;;;15.30;96628.00;;;;5114326;28;20186;-48
2022/08/09 03:22:26;;;;;;;0.60;0.60;;;;;15.20;96632.00;;;;5114282;28;20194;-49
2022/08/09 03:24:53;;;;;;;0.80;0.80;;;;;15.30;96624.00;;;;5096136;28;20229;-49
2022/08/09 03:27:21;;;;;;;0.63;0.63;;;;;15.40;96628.00;;;;5114122;28;20198;-49
2022/08/09 03:29:50;;;;;;;1.03;0.90;;;;;15.30;96630.00;;;;5114182;28;20718;-49
2022/08/09 03:32:19;;;;;;;0.50;0.50;;;;;15.30;96622.00;;;;5096058;28;20284;-49
2022/08/09 03:34:46;;;;;;;0.90;0.90;;;;;15.20;96627.00;;;;5113977;28;20680;-49
2022/08/09 03:37:14;;;;;;;0.50;0.50;;;;;15.10;96632.00;;;;5114077;28;20190;-49
2022/08/09 03:39:41;;;;;;;0.60;0.60;;;;;15.10;96634.00;;;;5114001;28;20218;-49
2022/08/09 03:42:08;;;;;;;0.70;0.70;;;;;14.90;96638.00;;;;5114176;28;20635;-48
2022/08/09 03:44:34;;;;;;;0.73;0.73;;;;;15.00;96634.00;;;;5113208;28;20241;-48
2022/08/09 03:47:01;;;;;;;0.50;0.50;;;;;14.90;96633.00;;;;5113952;28;20251;-48
2022/08/09 03:49:29;;;;;;;0.60;0.60;;;;;14.90;96636.00;;;;5114007;28;20237;-48
2022/08/09 03:52:00;;;;;;;0.70;0.70;;;;;14.80;96635.00;;;;5113943;28;20216;-48
2022/08/09 03:54:32;;;;;;;4.73;1.03;;;;;14.80;96631.00;;;;5113756;28;20228;-48
2022/08/09 03:57:01;;;;;;;0.63;0.63;;;;;14.80;96645.00;;;;5113779;28;20258;-48
2022/08/09 03:59:28;;;;;;;0.60;0.60;;;;;14.80;96639.00;;;;5113663;28;20217;-48
2022/08/09 04:01:57;;;;;;;0.50;0.50;;;;;14.80;96637.00;;;;5095851;28;20210;-48
2022/08/09 04:04:25;;;;;;;0.80;0.80;;;;;14.70;96641.00;;;;5113551;28;20210;-50
2022/08/09 04:06:56;;;;;;;0.60;0.60;;;;;14.80;96642.00;;;;5113748;28;20273;-51
2022/08/09 04:09:24;;;;;;;0.50;0.50;;;;;14.90;96643.00;;;;5113658;28;20205;-48
2022/08/09 04:12:29;;;;;;;0.73;0.73;;;;;14.90;96640.00;;;;5113876;28;20198;-50
2022/08/09 04:14:56;;;;;;;0.57;0.57;;;;;14.90;96642.00;;;;5113486;28;20320;-49
2022/08/09 04:17:23;;;;;;;0.70;0.70;;;;;14.90;96639.00;;;;5113763;28;20504;-49
2022/08/09 04:19:50;;;;;;;0.60;0.60;;;;;14.60;96645.00;;;;5113376;28;20354;-49
2022/08/09 04:22:17;;;;;;;0.60;0.60;;;;;14.80;96646.00;;;;5113404;28;20202;-49
2022/08/09 04:24:45;;;;;;;0.50;0.50;;;;;14.90;96648.00;;;;5113286;28;20229;-48
2022/08/09 04:27:11;;;;;;;0.80;0.80;;;;;14.80;96650.00;;;;5095473;28;20274;-48
2022/08/09 04:29:38;;;;;;;1.40;0.93;;;;;14.80;96655.00;;;;5113225;28;20190;-48
2022/08/09 04:32:05;;;;;;;0.53;0.53;;;;;14.80;96654.00;;;;5113429;28;20194;-49
2022/08/09 04:34:33;;;;;;;0.80;0.80;;;;;14.70;96657.00;;;;5113347;28;20328;-50
2022/08/09 04:37:00;;;;;;;0.83;0.83;;;;;14.70;96657.00;;;;5113279;28;20234;-46
2022/08/09 04:39:27;;;;;;;0.70;0.70;;;;;14.70;96669.00;;;;5095169;28;20242;-48
2022/08/09 04:41:55;;;;;;;0.87;0.87;;;;;14.80;96663.00;;;;5113211;28;20214;-49
2022/08/09 04:44:21;;;;;;;0.70;0.70;;;;;14.70;96668.00;;;;5113385;28;20232;-47
2022/08/09 04:46:48;;;;;;;0.77;0.77;;;;;14.80;96666.00;;;;5113132;28;20217;-48
2022/08/09 04:49:15;;;;;;;0.80;0.80;;;;;14.80;96668.00;;;;5095239;28;20229;-48
2022/08/09 04:51:42;;;;;;;0.60;0.60;;;;;14.80;96668.00;;;;5113023;28;20681;-48
2022/08/09 04:54:09;;;;;;;0.80;0.80;;;;;14.70;96674.00;;;;5113676;28;20205;-49
2022/08/09 04:56:36;;;;;;;0.50;0.50;;;;;14.80;96675.00;;;;5116568;28;20197;-47
2022/08/09 04:59:04;;;;;;;0.70;0.70;;;;;14.90;96680.00;;;;5116608;28;20194;-49
2022/08/09 05:01:30;;;;;;;0.50;0.50;;;;;14.90;96678.00;;;;5116524;28;20331;-49
2022/08/09 05:03:57;;;;;;;0.70;0.70;;;;;14.90;96686.00;;;;5098468;28;20512;-49
2022/08/09 05:06:26;;;;;;;0.50;0.50;;;;;14.90;96674.00;;;;5116498;28;20270;-49
2022/08/09 05:08:53;;;;;;;0.60;0.60;;;;;15.00;96685.00;;;;5116444;28;20186;-48
2022/08/09 05:11:20;;;;;;;0.70;0.70;;;;;15.00;96678.00;;;;5116428;28;20222;-48
2022/08/09 05:13:47;;;;;;;0.60;0.60;;;;;15.00;96686.00;;;;5116541;28;20299;-48
2022/08/09 05:16:14;;;;;;;0.67;0.67;;;;;14.90;96678.00;;;;5116715;28;20293;-48
2022/08/09 05:18:41;;;;;;;0.60;0.60;;;;;14.90;96684.00;;;;5116710;28;20498;-49
2022/08/09 05:21:08;;;;;;;0.60;0.60;;;;;15.10;96685.00;;;;5098529;28;20252;-49
2022/08/09 05:23:35;;;;;;;0.67;0.67;;;;;15.10;96689.00;;;;5098186;28;20610;-51
2022/08/09 05:26:05;;;;;;;0.50;0.50;;;;;15.00;96690.00;;;;5116284;28;20645;-49
2022/08/09 05:28:32;;;;;;;0.50;0.50;;;;;15.10;96689.00;;;;5116161;28;20190;-50
2022/08/09 05:30:59;;;;;;;0.90;0.90;;;;;15.10;96692.00;;;;5116030;28;20245;-48
2022/08/09 05:33:26;;;;;;;0.60;0.60;;;;;15.20;96692.00;;;;5116189;28;20554;-49
2022/08/09 05:35:53;;;;;;;0.90;0.90;;;;;15.30;96690.00;;;;5116158;28;20229;-49
2022/08/09 05:38:20;;;;;;;0.80;0.80;;;;;15.30;96695.00;;;;5115970;28;20621;-49
2022/08/09 05:40:47;;;;;;;0.60;0.60;;;;;15.30;96690.00;;;;5115947;28;20549;-48
2022/08/09 05:43:14;;;;;;;0.83;0.83;;;;;15.40;96686.00;;;;5115970;28;20208;-49
2022/08/09 05:45:41;;;;;;;0.60;0.60;;;;;15.40;96691.00;;;;5097653;28;20229;-49
2022/08/09 05:48:13;;;;;;;0.70;0.70;;;;;15.40;96688.00;;;;5115969;28;20272;-49
2022/08/09 05:50:44;;;;;;;0.70;0.70;;;;;15.70;96689.00;;;;5097687;28;20246;-47
2022/08/09 05:53:11;;;;;;;0.83;0.83;;;;;15.80;96695.00;;;;5115794;28;20190;-48
2022/08/09 05:55:38;;;;;;;0.60;0.60;;;;;15.80;96685.00;;;;5097685;28;20520;-48
2022/08/09 05:58:05;;;;;;;1.77;1.67;;;;;16.00;96694.00;;;;5115818;28;20296;-52
2022/08/09 06:00:32;;;;;;;1.73;1.17;;;;;16.10;96696.00;;;;5115641;28;20294;-49
2022/08/09 06:03:00;;;;;;;0.70;0.70;;;;;16.10;96707.00;;;;5115985;28;20351;-48
2022/08/09 06:05:28;;;;;;;0.70;0.70;;;;;16.20;96711.00;;;;5097416;28;20278;-48
2022/08/09 06:07:56;;;;;;;1.80;1.20;;;;;16.40;96704.00;;;;5115280;28;20194;-48
2022/08/09 06:10:36;;;;;;;0.60;0.60;;;;;16.40;96704.00;;;;5115414;28;20194;-48
2022/08/09 06:13:04;;;;;;;0.80;0.80;;;;;16.50;96710.00;;;;5115772;28;20641;-49
2022/08/09 06:15:33;;;;;;;0.70;0.70;;;;;16.60;96715.00;;;;5115755;28;20206;-48
2022/08/09 06:18:01;;;;;;;1.33;1.23;;;;;16.70;96709.00;;;;5115599;28;20190;-49
2022/08/09 06:20:30;;;;;;;0.50;0.50;;;;;16.70;96713.00;;;;5115482;28;20194;-48
2022/08/09 06:22:58;;;;;;;0.90;0.90;;;;;16.90;96710.00;;;;5097439;28;20194;-49
2022/08/09 06:25:25;;;;;;;0.60;0.60;;;;;17.00;96713.00;;;;5115449;28;20282;-49
2022/08/09 06:27:52;;;;;;;0.87;0.87;;;;;17.00;96717.00;;;;5115217;28;20226;-50
2022/08/09 06:30:19;;;;;;;0.83;0.83;;;;;17.00;96722.00;;;;5115291;28;20297;-50
2022/08/09 06:32:46;;;;;;;0.57;0.57;;;;;16.90;96723.00;;;;5115092;28;20275;-49
2022/08/09 06:35:13;;;;;;;1.70;0.90;;;;;17.10;96723.00;;;;5115208;28;20286;-49
2022/08/09 06:37:40;;;;;;;0.40;0.40;;;;;17.30;96728.00;;;;5097284;28;20649;-48
2022/08/09 06:40:09;;;;;;;0.60;0.60;;;;;17.30;96722.00;;;;5115217;28;20209;-49
2022/08/09 06:42:36;;;;;;;0.53;0.53;;;;;17.50;96719.00;;;;5115079;28;20190;-49
2022/08/09 06:45:03;;;;;;;0.70;0.70;;;;;17.60;96724.00;;;;5114970;28;20285;-48
2022/08/09 06:47:30;;;;;;;0.50;0.50;;;;;17.70;96714.00;;;;5115184;28;20234;-48
2022/08/09 06:49:59;;;;;;;0.50;0.50;;;;;17.80;96723.00;;;;5114872;28;20559;-48
2022/08/09 06:52:26;;;;;;;1.07;1.03;;;;;18.00;96726.00;;;;5096915;28;20368;-50
2022/08/09 06:54:53;;;;;;;0.70;0.70;;;;;18.10;96723.00;;;;5114758;28;20218;-49
2022/08/09 06:57:23;;;;;;;1.63;1.53;;;;;18.20;96715.00;;;;5114846;28;20236;-49
2022/08/09 06:59:50;;;;;;;1.47;1.37;;;;;18.40;96725.00;;;;5114866;28;20193;-48
2022/08/09 07:02:17;;;;;;;0.67;0.67;;;;;18.60;96730.00;;;;5114833;28;20327;-50
2022/08/09 07:04:46;;;;;;;1.07;1.07;;;;;18.80;96730.00;;;;5114751;28;20499;-49
2022/08/09 07:07:14;;;;;;;0.70;0.70;;;;;19.00;96729.00;;;;5114982;28;20595;-49
2022/08/09 07:09:43;;;;;;;0.70;0.70;;;;;19.30;96728.00;;;;5114935;28;20194;-53
2022/08/09 07:12:11;;;;;;;3.30;1.43;;;;;19.40;96730.00;;;;5096824;28;20225;-49
2022/08/09 07:14:38;;;;;;;1.07;1.07;;;;;19.50;96744.00;;;;5114753;28;20292;-48
2022/08/09 07:17:08;;;;;;;0.60;0.60;;;;;19.80;96733.00;;;;5114190;28;20239;-48
2022/08/09 07:19:35;;;;;;;0.87;0.60;;;;;19.90;96744.00;;;;5113831;28;20258;-48
2022/08/09 07:22:02;;;;;;;0.80;0.80;;;;;20.10;96733.00;;;;5114297;28;20644;-48
2022/08/09 07:24:30;;;;;;;2.17;1.07;;;;;20.40;96744.00;;;;5115538;28;20237;-48
2022/08/09 07:26:57;;;;;;;0.50;0.50;;;;;20.50;96742.00;;;;5114390;28;20190;-49
2022/08/09 07:29:23;;;;;;;0.53;0.53;;;;;20.60;96748.00;;;;5114225;28;20297;-53
2022/08/09 07:31:51;;;;;;;0.73;0.73;;;;;20.80;96743.00;;;;5115205;28;20204;-57
2022/08/09 07:34:21;;;;;;;0.50;0.50;;;;;21.00;96746.00;;;;5114266;28;20299;-49
2022/08/09 07:36:48;;;;;;;0.50;0.50;;;;;21.30;96742.00;;;;5096249;28;20201;-49
2022/08/09 07:39:15;;;;;;;0.63;0.63;;;;;21.40;96746.00;;;;5114387;28;20567;-49
2022/08/09 07:41:42;;;;;;;0.70;0.70;;;;;21.60;96744.00;;;;5096000;28;20379;-49
2022/08/09 07:44:09;;;;;;;0.53;0.53;;;;;21.70;96720.00;;;;5113913;28;20209;-49
2022/08/09 07:46:36;;;;;;;0.80;0.80;;;;;21.80;96758.00;;;;5113888;28;20240;-48
2022/08/09 07:49:04;;;;;;;0.70;0.70;;;;;21.90;96758.00;;;;5113873;28;20357;-48
2022/08/09 07:51:32;;;;;;;0.73;0.73;;;;;22.10;96758.00;;;;5114024;28;20197;-49
2022/08/09 07:53:59;;;;;;;0.50;0.50;;;;;22.30;96752.00;;;;5113884;28;20209;-49
2022/08/09 07:56:26;;;;;;;1.05;1.05;;;;;22.30;96756.00;;;;5113906;28;20200;-48
2022/08/09 07:58:53;;;;;;;0.60;0.60;;;;;22.40;96756.00;;;;5113923;28;20225;-49
2022/08/09 08:01:22;;;;;;;0.90;0.90;;;;;22.40;96750.00;;;;5113701;28;20235;-48
2022/08/09 08:03:49;;;;;;;0.65;0.65;;;;;22.50;96749.00;;;;5113657;28;20244;-49
2022/08/09 08:06:19;;;;;;;0.80;0.80;;;;;22.50;96757.00;;;;5113646;28;20256;-49
2022/08/09 08:08:48;;;;;;;0.60;0.60;;;;;22.60;96759.00;;;;5113654;28;20224;-48
2022/08/09 08:11:15;;;;;;;0.88;0.88;;;;;22.80;96754.00;;;;5113658;28;20575;-49
2022/08/09 08:13:42;;;;;;;0.57;0.57;;;;;23.00;96755.00;;;;5113572;28;20202;-49
2022/08/09 08:16:09;;;;;;;0.60;0.60;;;;;23.30;96757.00;;;;5113731;28;20206;-49
2022/08/09 08:18:36;;;;;;;0.50;0.50;;;;;22.90;96761.00;;;;5095604;28;20209;-49
2022/08/09 08:21:03;;;;;;;0.60;0.60;;;;;22.90;96757.00;;;;5113482;28;20225;-48
2022/08/09 08:23:30;;;;;;;0.40;0.40;;;;;23.10;96760.00;;;;5113498;28;20262;-49
2022/08/09 08:25:57;;;;;;;0.75;0.75;;;;;23.20;96759.00;;;;5113306;28;20214;-50
2022/08/09 08:28:26;;;;;;;0.52;0.52;;;;;23.30;96759.00;;;;5113317;28;20190;-48
2022/08/09 08:30:53;;;;;;;1.00;1.00;;;;;23.40;96759.00;;;;5116442;28;20190;-48
2022/08/09 08:33:21;;;;;;;0.88;0.88;;;;;23.30;96759.00;;;;5116824;28;20221;-48
2022/08/09 08:35:50;;;;;;;0.93;0.93;;;;;23.60;96770.00;;;;5116771;28;20197;-48
2022/08/09 08:38:19;;;;;;;0.60;0.60;;;;;23.80;96772.00;;;;5116751;28;20213;-49
2022/08/09 08:40:47;;;;;;;0.70;0.70;;;;;23.70;96762.00;;;;5116852;28;20775;-49
2022/08/09 08:43:14;;;;;;;0.50;0.50;;;;;23.90;96763.00;;;;5116785;28;20305;-49
2022/08/09 08:45:49;;;;;;;0.73;0.73;;;24.30;29.50;24.00;96771.00;;;;5116723;28;20317;-49
2022/08/09 08:48:16;;;;;;;0.60;0.60;;;24.30;29.70;24.20;96768.00;;;;5116834;28;20197;-49
2022/08/09 08:50:45;;;;;;;0.70;0.70;;;24.50;29.30;24.20;96776.00;;;;5116769;28;20202;-49
2022/08/09 08:53:13;;;;;;;0.50;0.50;;;24.60;29.40;24.20;96767.00;;;;5116683;28;20273;-50
2022/08/09 08:55:41;;;;;;;2.35;1.05;;;;;24.50;96777.00;;;;5116677;28;20233;-49
2022/08/09 08:58:10;;;;;;;1.30;1.20;;;24.80;28.60;24.60;96780.00;;;;5116485;28;20232;-49
2022/08/09 09:00:37;;;;;;;0.80;0.80;;;24.90;27.40;24.50;96784.00;;;;5116429;28;20198;-52
2022/08/09 09:03:04;;;;;;;1.05;1.05;;;24.90;26.90;24.40;96784.00;;;;5116338;28;20194;-48
2022/08/09 09:05:32;;;;;;;0.82;0.82;;;24.80;27.60;24.40;96774.00;;;;5116232;28;20242;-46
2022/08/09 09:08:03;;;;;;;0.40;0.40;;;24.80;27.70;24.80;96779.00;;;;5116322;28;20201;-47
2022/08/09 09:10:34;;;;;;;0.80;0.80;;;25.00;27.40;25.00;96777.00;;;;5116298;28;20335;-48
2022/08/09 09:13:02;;;;;;;0.50;0.50;;;25.30;26.10;25.10;96780.00;;;;5116170;28;20226;-49
2022/08/09 09:15:31;;;;;;;0.45;0.45;;;25.40;25.80;25.00;96780.00;;;;5116229;28;20218;-48
2022/08/09 09:18:00;;;;;;;0.68;0.68;;;25.40;26.20;25.00;96769.00;;;;5116191;28;20217;-48
2022/08/09 09:20:33;;;;;;;0.73;0.73;;;25.40;25.70;25.20;96778.00;;;;5116261;28;20284;-48
2022/08/09 09:23:00;;;;;;;1.63;0.75;;;25.50;26.10;25.30;96772.00;;;;5116168;28;20262;-48
2022/08/09 09:25:33;;;;;;;0.60;0.60;;;25.60;26.60;25.30;96774.00;;;;5116082;28;20302;-48
2022/08/09 09:28:01;;;;;;;0.70;0.70;;;25.60;26.30;25.50;96769.00;;;;5116189;28;20689;-48
2022/08/09 09:30:28;;;;;;;0.60;0.60;;;25.80;25.60;25.30;96771.00;;;;5115993;28;20222;-48
2022/08/09 09:33:05;;;;;;;1.05;1.05;;;25.70;23.50;25.20;96771.00;;;;5115946;28;20208;-48
2022/08/09 09:35:32;;;;;;;0.50;0.50;;;25.60;24.50;25.20;96774.00;;;;5115931;28;20244;-48
2022/08/09 09:37:59;;;;;;;0.50;0.50;;;25.70;24.50;25.40;96770.00;;;;5115918;28;20217;-48
2022/08/09 09:40:41;;;;;;;0.60;0.60;;;25.70;25.30;25.70;96772.00;;;;5115317;28;20506;-47
2022/08/09 09:43:08;;;;;;;0.88;0.88;;;;;25.60;96769.00;;;;5115589;28;20206;-48
2022/08/09 09:45:51;;;;;;;0.65;0.65;;;25.90;24.00;25.70;96776.00;;;;5115628;28;20218;-48
2022/08/09 09:48:21;;;;;;;0.75;0.75;;;26.00;24.40;25.70;96774.00;;;;5115637;28;20286;-48
2022/08/09 09:50:50;;;;;;;0.50;0.50;;;26.00;24.60;25.80;96770.00;;;;5115709;28;20497;-48
2022/08/09 09:53:20;;;;;;;0.50;0.50;;;26.10;24.10;26.10;96749.00;;;;5115588;28;20235;-48
2022/08/09 09:56:01;;;;;;;0.80;0.70;;;26.30;23.40;26.10;96763.00;;;;5115592;28;20193;-48
2022/08/09 09:58:46;;;;;;;0.70;0.70;;;26.30;23.30;26.10;96765.00;;;;5115483;28;20635;-47
2022/08/09 10:01:20;;;;;;;0.95;0.95;;;26.50;23.60;25.90;96764.00;;;;5097639;28;20300;-48
2022/08/09 10:03:50;;;;;;;1.00;1.00;;;26.30;23.10;26.20;96744.00;;;;5115307;28;20197;-48
2022/08/09 10:06:19;;;;;;;22.65;1.17;;;26.50;23.30;26.20;96766.00;;;;5115403;28;20518;-50
2022/08/09 10:08:50;;;;;;;0.80;0.80;;;26.40;23.30;26.20;96757.00;;;;5115632;28;20290;-48
2022/08/09 10:11:20;;;;;;;0.60;0.60;;;26.50;22.30;26.30;96762.00;;;;5097867;28;20617;-47
2022/08/09 10:13:47;;;;;;;0.60;0.60;;;26.60;21.70;26.00;96759.00;;;;5115653;28;20639;-49
2022/08/09 10:16:14;;;;;;;0.65;0.65;;;26.40;22.10;26.30;96768.00;;;;5115263;28;20312;-48
2022/08/09 10:18:50;;;;;;;0.50;0.50;;;26.50;22.30;26.40;96761.00;;;;5115276;28;20262;-49
2022/08/09 10:21:17;;;;;;;0.80;0.63;;;26.70;21.70;26.50;96766.00;;;;5115148;28;20217;-48
2022/08/09 10:23:47;;;;;;;0.65;0.65;;;26.80;21.70;26.40;96756.00;;;;5115184;28;20232;-48
2022/08/09 10:26:14;;;;;;;0.50;0.50;;;26.80;21.60;26.40;96747.00;;;;5115185;28;20222;-51
2022/08/09 10:28:43;;;;;;;0.70;0.70;;;26.70;21.30;26.20;96754.00;;;;5115281;28;20201;-48
2022/08/09 10:31:11;;;;;;;0.60;0.60;;;;;26.40;96748.00;;;;5115096;28;20194;-48
2022/08/09 10:33:39;;;;;;;1.00;1.00;;;26.70;20.30;26.80;96757.00;;;;5114989;28;20338;-49
2022/08/09 10:36:09;;;;;;;0.55;0.55;;;27.00;22.10;27.10;96744.00;;;;5115090;28;20293;-48
2022/08/09 10:38:36;;;;;;;0.85;0.85;;;27.40;21.30;26.80;96743.00;;;;5114964;28;20321;-49
2022/08/09 10:41:04;;;;;;;0.70;0.70;;;27.10;21.40;27.20;96756.00;;;;5115033;28;20205;-48
2022/08/09 10:43:34;;;;;;;0.60;0.60;;;27.30;21.30;27.20;96752.00;;;;5114767;28;20565;-49
2022/08/09 10:46:29;;;;;;;0.70;0.70;;;27.50;20.80;27.10;96735.00;;;;5114899;28;20321;-48
2022/08/09 10:49:08;;;;;;;0.88;0.88;;;27.50;20.70;27.10;96748.00;;;;5097178;28;20202;-50
2022/08/09 10:51:54;;;;;;;0.60;0.60;;;27.40;20.60;26.70;96743.00;;;;5115098;28;20208;-49
2022/08/09 10:54:23;;;;;;;0.60;0.60;;;27.10;21.00;27.00;96744.00;;;;5114877;28;20579;-49
2022/08/09 10:57:07;;;;;;;0.60;0.60;;;27.30;21.10;27.30;96745.00;;;;5114714;28;20214;-48
2022/08/09 10:59:36;;;;;;;2.45;0.98;;;27.50;21.20;27.00;96744.00;;;;5114814;28;20218;-49
2022/08/09 11:02:05;;;;;;;0.82;0.82;;;27.30;21.10;27.70;96748.00;;;;5114555;28;20262;-46
2022/08/09 11:04:35;;;;;;;1.95;0.88;;;;;27.70;96749.00;;;;5114608;28;20218;-48
2022/08/09 11:07:27;;;;;;;0.82;0.82;;;27.90;19.00;27.10;96745.00;;;;5114533;28;20762;-48
2022/08/09 11:09:53;;;;;;;2.63;1.42;;;27.50;19.80;27.50;96742.00;;;;5114669;28;20232;-50
2022/08/09 11:12:25;;;;;;;0.50;0.50;;;27.80;19.90;27.80;96744.00;;;;5114411;28;20254;-49
2022/08/09 11:14:56;;;;;;;0.70;0.70;;;28.00;20.00;28.10;96731.00;;;;5096591;28;20206;-48
2022/08/09 11:17:51;;;;;;;0.80;0.80;;;28.20;20.10;28.20;96720.00;;;;5114496;28;20250;-48
2022/08/09 11:20:37;;;;;;;0.52;0.52;;;28.40;19.30;28.00;96743.00;;;;5114584;28;20626;-49
2022/08/09 11:23:05;;;;;;;1.60;1.10;;;28.40;19.40;28.30;96736.00;;;;5114400;28;20197;-49
2022/08/09 11:25:39;;;;;;;1.05;1.05;;;28.50;19.40;28.30;96736.00;;;;5114153;28;20233;-46
2022/08/09 11:28:38;;;;;;;0.50;0.50;;;28.50;19.70;28.30;96717.00;;;;5114318;28;20243;-49
2022/08/09 11:31:45;;;;;;;0.70;0.70;;;28.50;20.00;28.60;96730.00;;;;5114154;28;20225;-49
2022/08/09 11:34:32;;;;;;;0.88;0.88;;;28.70;19.10;28.30;96714.00;;;;5114271;28;20217;-49
2022/08/09 11:37:02;;;;;;;0.57;0.57;;;28.60;19.70;28.70;96728.00;;;;5114199;28;20221;-50
2022/08/09 11:39:31;;;;;;;0.60;0.60;;;28.80;19.40;28.80;96726.00;;;;5114295;28;20205;-54
2022/08/09 11:42:06;;;;;;;0.65;0.65;;;;;29.00;96722.00;;;;5114123;28;20317;-49
2022/08/09 11:44:47;;;;;;;1.05;1.02;;;29.20;18.70;28.70;96710.00;;;;5114170;28;20234;-47
2022/08/09 11:47:14;;;;;;;0.77;0.77;;;29.00;19.50;28.90;96708.00;;;;5114024;28;20247;-48
2022/08/09 11:50:03;;;;;;;0.60;0.60;;;29.00;19.50;29.10;96705.00;;;;5114031;28;20267;-48
2022/08/09 11:52:31;;;;;;;0.68;0.68;;;29.20;19.00;29.10;96698.00;;;;5107025;28;20210;-48
2022/08/09 11:55:33;;;;;;;0.70;0.70;;;29.30;18.70;29.00;96705.00;;;;5114033;28;20209;-50
2022/08/09 11:58:02;;;;;;;0.60;0.60;;;29.20;18.10;29.00;96702.00;;;;5082079;28;20232;-49
2022/08/09 12:00:32;;;;;;;0.63;0.63;;;29.20;18.00;29.20;96707.00;;;;5113897;28;20310;-49
2022/08/09 12:03:00;;;;;;;0.50;0.50;;;29.50;18.10;29.60;96702.00;;;;5113783;28;20752;-47
2022/08/09 12:05:35;;;;;;;0.60;0.60;;;29.70;17.80;29.60;96700.00;;;;5112788;28;20320;-49
2022/08/09 12:08:08;;;;;;;0.70;0.70;;;29.70;17.60;29.70;96706.00;;;;5113816;28;20225;-49